createdAt,value
2023-02-23T00:01:54.555Z,-1.65
2023-02-23T00:04:23.734Z,-1.96
2023-02-23T00:06:52.315Z,-1.65
2023-02-23T00:09:25.297Z,-1.67
2023-02-23T00:11:54.412Z,-1.70
2023-02-23T00:14:24.766Z,-1.85
2023-02-23T00:16:51.334Z,-1.74
2023-02-23T00:19:17.995Z,-1.71
2023-02-23T00:21:45.558Z,-1.62
2023-02-23T00:24:15.526Z,-1.73
2023-02-23T00:26:42.822Z,-1.93
2023-02-23T00:29:16.829Z,-1.71
2023-02-23T00:31:47.507Z,-1.80
2023-02-23T00:34:16.606Z,-1.93
2023-02-23T00:36:43.394Z,-2.43
2023-02-23T00:39:26.922Z,-1.73
2023-02-23T00:41:54.843Z,-1.75
2023-02-23T00:44:23.620Z,-1.80
2023-02-23T00:46:52.248Z,-1.66
2023-02-23T00:49:21.005Z,-1.67
2023-02-23T00:51:48.160Z,-1.84
2023-02-23T00:54:16.711Z,-1.99
2023-02-23T00:56:43.364Z,-2.01
2023-02-23T00:59:10.780Z,-2.03
2023-02-23T01:01:38.810Z,-2.35
2023-02-23T01:04:07.267Z,-2.11
2023-02-23T01:06:34.838Z,-1.78
2023-02-23T01:09:05.402Z,-2.25
2023-02-23T01:11:32.108Z,-2.22
2023-02-23T01:14:00.353Z,-2.26
2023-02-23T01:16:30.056Z,-2.23
2023-02-23T01:19:01.724Z,-2.23
2023-02-23T01:21:31.818Z,-1.85
2023-02-23T01:23:58.563Z,-1.84
2023-02-23T01:26:28.021Z,-1.89
2023-02-23T01:29:09.727Z,-1.83
2023-02-23T01:31:38.975Z,-1.79
2023-02-23T01:34:06.615Z,-1.84
2023-02-23T01:36:39.075Z,-1.80
2023-02-23T01:39:07.934Z,-1.75
2023-02-23T01:41:36.670Z,-1.77
2023-02-23T01:44:13.668Z,-1.86
2023-02-23T01:46:43.742Z,-1.90
2023-02-23T01:49:15.597Z,-1.87
2023-02-23T01:51:50.873Z,-2.09
2023-02-23T01:54:26.285Z,-1.91
2023-02-23T01:57:01.037Z,-2.00
2023-02-23T01:59:39.883Z,-1.99
2023-02-23T02:02:07.805Z,-2.06
2023-02-23T02:04:45.975Z,-2.12
2023-02-23T02:07:26.086Z,-2.09
2023-02-23T02:10:11.179Z,-2.07
2023-02-23T02:12:44.355Z,-2.09
2023-02-23T02:15:17.385Z,-2.21
2023-02-23T02:18:18.806Z,-2.16
2023-02-23T02:21:07.295Z,-2.12
2023-02-23T02:23:55.656Z,-2.12
2023-02-23T02:26:26.831Z,-2.36
2023-02-23T02:28:54.791Z,-2.16
2023-02-23T02:31:55.066Z,-2.25
2023-02-23T02:34:42.544Z,-2.43
2023-02-23T02:37:27.346Z,-2.26
2023-02-23T02:40:18.244Z,-2.27
2023-02-23T02:42:51.280Z,-2.25
2023-02-23T02:45:22.181Z,-2.23
2023-02-23T02:47:52.966Z,-2.23
2023-02-23T02:50:53.118Z,-2.26
2023-02-23T02:53:41.906Z,-2.28
2023-02-23T02:56:20.019Z,-2.33
2023-02-23T02:58:50.365Z,-2.68
2023-02-23T03:01:37.255Z,-2.49
2023-02-23T03:04:41.430Z,-2.39
2023-02-23T03:07:45.560Z,-2.38
2023-02-23T03:10:52.799Z,-2.53
2023-02-23T03:14:02.924Z,-2.54
2023-02-23T03:17:00.399Z,-2.23
2023-02-23T03:19:53.372Z,-2.47
2023-02-23T03:22:45.411Z,-2.38
2023-02-23T03:25:38.505Z,-2.34
2023-02-23T03:28:26.604Z,-2.07
2023-02-23T03:31:22.998Z,-2.07
2023-02-23T03:34:13.863Z,-2.21
2023-02-23T03:37:05.801Z,-2.17
2023-02-23T03:40:01.944Z,-2.16
2023-02-23T03:42:51.430Z,-2.23
2023-02-23T03:45:39.968Z,-2.29
2023-02-23T03:48:29.302Z,-2.57
2023-02-23T03:51:20.144Z,-2.33
2023-02-23T03:54:11.443Z,-2.27
2023-02-23T03:57:00.439Z,-2.28
2023-02-23T03:59:52.660Z,-2.40
2023-02-23T04:02:39.639Z,-2.48
2023-02-23T04:05:29.467Z,-2.31
2023-02-23T04:08:17.001Z,-2.33
2023-02-23T04:11:14.574Z,-2.32
2023-02-23T04:13:45.254Z,-2.46
2023-02-23T04:16:12.271Z,-2.31
2023-02-23T04:18:39.779Z,-2.39
2023-02-23T04:21:07.776Z,-2.45
2023-02-23T04:23:36.024Z,-2.46
2023-02-23T04:26:02.593Z,-2.59
2023-02-23T04:28:29.449Z,-2.61
2023-02-23T04:30:56.291Z,-2.64
2023-02-23T04:33:24.201Z,-2.82
2023-02-23T04:35:55.001Z,-2.62
2023-02-23T04:38:22.186Z,-2.46
2023-02-23T04:40:49.173Z,-2.58
2023-02-23T04:43:15.764Z,-2.75
2023-02-23T04:45:42.709Z,-2.65
2023-02-23T04:48:09.372Z,-2.61
2023-02-23T04:50:36.099Z,-2.62
2023-02-23T04:53:03.759Z,-2.64
2023-02-23T04:55:30.429Z,-2.58
2023-02-23T04:57:59.388Z,-2.73
2023-02-23T05:00:29.519Z,-2.63
2023-02-23T05:02:57.509Z,-2.55
2023-02-23T05:05:31.605Z,-2.70
2023-02-23T05:07:58.253Z,-2.81
2023-02-23T05:10:24.834Z,-2.76
2023-02-23T05:12:51.468Z,-2.60
2023-02-23T05:15:18.964Z,-2.99
2023-02-23T05:17:45.499Z,-2.73
2023-02-23T05:20:13.340Z,-2.64
2023-02-23T05:22:40.315Z,-2.64
2023-02-23T05:25:08.854Z,-2.76
2023-02-23T05:27:35.846Z,-2.59
2023-02-23T05:30:02.703Z,-2.52
2023-02-23T05:32:29.705Z,-2.78
2023-02-23T05:34:56.613Z,-2.54
2023-02-23T05:37:23.837Z,-2.71
2023-02-23T05:39:51.449Z,-2.72
2023-02-23T05:42:18.144Z,-2.73
2023-02-23T05:44:44.851Z,-2.74
2023-02-23T05:47:11.585Z,-2.62
2023-02-23T05:49:38.727Z,-2.72
2023-02-23T05:52:05.645Z,-2.56
2023-02-23T05:54:32.302Z,-2.63
2023-02-23T05:57:01.466Z,-2.79
2023-02-23T05:59:28.506Z,-2.64
2023-02-23T06:01:55.210Z,-2.68
2023-02-23T06:04:23.432Z,-2.63
2023-02-23T06:06:50.212Z,-2.54
2023-02-23T06:09:16.937Z,-2.47
2023-02-23T06:11:44.772Z,-2.78
2023-02-23T06:14:11.494Z,-2.63
2023-02-23T06:16:38.367Z,-2.30
2023-02-23T06:19:05.324Z,-2.63
2023-02-23T06:21:31.926Z,-2.46
2023-02-23T06:24:00.733Z,-2.32
2023-02-23T06:26:27.712Z,-2.36
2023-02-23T06:28:54.545Z,-2.15
2023-02-23T06:31:21.847Z,-2.21
2023-02-23T06:33:48.823Z,-2.08
2023-02-23T06:36:15.547Z,-2.08
2023-02-23T06:38:42.107Z,-2.12
2023-02-23T06:41:10.523Z,-2.01
2023-02-23T06:43:37.248Z,-2.07
2023-02-23T06:46:04.294Z,-2.05
2023-02-23T06:48:30.937Z,-2.03
2023-02-23T06:51:00.711Z,-2.00
2023-02-23T06:53:27.622Z,-1.93
2023-02-23T06:55:54.354Z,-1.75
2023-02-23T06:58:21.004Z,-1.67
2023-02-23T07:00:47.696Z,-1.64
2023-02-23T07:03:14.361Z,-1.78
2023-02-23T07:05:41.109Z,-1.66
2023-02-23T07:08:08.014Z,-1.59
2023-02-23T07:10:35.198Z,-1.60
2023-02-23T07:13:04.945Z,-1.27
2023-02-23T07:15:39.630Z,-1.16
2023-02-23T07:18:08.096Z,-1.16
2023-02-23T07:20:35.058Z,-1.04
2023-02-23T07:23:02.190Z,-1.11
2023-02-23T07:25:29.315Z,-0.99
2023-02-23T07:27:56.055Z,-0.90
2023-02-23T07:30:24.745Z,-0.81
2023-02-23T07:32:52.756Z,-0.72
2023-02-23T07:35:19.635Z,-0.76
2023-02-23T07:37:46.416Z,-0.65
2023-02-23T07:40:16.097Z,-0.56
2023-02-23T07:42:42.767Z,-0.53
2023-02-23T07:45:09.872Z,-0.51
2023-02-23T07:47:37.672Z,-0.47
2023-02-23T07:50:09.832Z,-0.29
2023-02-23T07:52:37.794Z,-0.35
2023-02-23T07:55:05.783Z,-0.29
2023-02-23T07:57:33.273Z,-0.07
2023-02-23T08:00:00.075Z,-0.07
2023-02-23T08:02:29.054Z,0.16
2023-02-23T08:04:55.857Z,0.24
2023-02-23T08:07:22.906Z,0.35
2023-02-23T08:09:49.693Z,0.27
2023-02-23T08:12:16.241Z,0.14
2023-02-23T08:14:43.086Z,0.32
2023-02-23T08:17:11.005Z,0.41
2023-02-23T08:19:37.740Z,0.46
2023-02-23T08:22:07.265Z,0.60
2023-02-23T08:24:35.689Z,0.60
2023-02-23T08:27:03.103Z,0.97
2023-02-23T08:29:30.089Z,1.07
2023-02-23T08:31:57.392Z,1.13
2023-02-23T08:34:24.811Z,1.26
2023-02-23T08:36:51.891Z,1.21
2023-02-23T08:39:18.979Z,1.17
2023-02-23T08:41:45.656Z,1.43
2023-02-23T08:44:12.358Z,1.66
2023-02-23T08:46:38.858Z,1.81
2023-02-23T08:49:06.064Z,1.71
2023-02-23T08:51:35.167Z,1.93
2023-02-23T08:54:02.182Z,1.88
2023-02-23T08:56:28.808Z,1.74
2023-02-23T08:58:55.991Z,1.67
2023-02-23T09:01:22.770Z,1.85
2023-02-23T09:03:50.586Z,2.01
2023-02-23T09:06:20.815Z,2.28
2023-02-23T09:08:47.650Z,2.47
2023-02-23T09:11:14.291Z,2.38
2023-02-23T09:13:40.927Z,2.48
2023-02-23T09:16:08.210Z,2.51
2023-02-23T09:18:35.560Z,2.63
2023-02-23T09:21:14.545Z,2.58
2023-02-23T09:23:41.106Z,2.47
2023-02-23T09:26:08.424Z,2.50
2023-02-23T09:28:36.350Z,2.63
2023-02-23T09:31:11.698Z,2.63
2023-02-23T09:33:38.452Z,2.85
2023-02-23T09:36:07.795Z,2.72
2023-02-23T09:38:34.672Z,2.72
2023-02-23T09:41:01.580Z,2.91
2023-02-23T09:43:44.944Z,2.92
2023-02-23T09:46:20.336Z,3.00
2023-02-23T09:48:47.079Z,3.05
2023-02-23T09:51:21.210Z,3.05
2023-02-23T09:53:52.291Z,3.06
2023-02-23T09:56:29.804Z,3.08
2023-02-23T09:58:56.487Z,3.26
2023-02-23T10:01:47.680Z,3.26
2023-02-23T10:04:28.908Z,3.27
2023-02-23T10:07:02.720Z,3.35
2023-02-23T10:09:58.911Z,3.39
2023-02-23T10:13:02.609Z,3.52
2023-02-23T10:15:45.772Z,3.72
2023-02-23T10:18:20.083Z,3.71
2023-02-23T10:20:55.766Z,3.77
2023-02-23T10:23:53.705Z,3.72
2023-02-23T10:26:24.321Z,3.85
2023-02-23T10:28:53.960Z,3.80
2023-02-23T10:31:43.012Z,3.94
2023-02-23T10:34:18.102Z,3.96
2023-02-23T10:36:52.189Z,4.13
2023-02-23T10:39:19.096Z,4.11
2023-02-23T10:41:46.023Z,4.05
2023-02-23T10:44:22.027Z,3.96
2023-02-23T10:47:06.099Z,4.06
2023-02-23T10:49:41.369Z,4.24
2023-02-23T10:52:14.954Z,4.47
2023-02-23T10:54:49.776Z,4.61
2023-02-23T10:57:30.045Z,4.64
2023-02-23T11:00:02.219Z,4.73
2023-02-23T11:02:33.424Z,4.68
2023-02-23T11:05:01.227Z,4.60
2023-02-23T11:07:33.527Z,4.62
2023-02-23T11:10:24.295Z,4.71
2023-02-23T11:12:52.033Z,4.74
2023-02-23T11:15:35.323Z,4.85
2023-02-23T11:18:22.896Z,4.99
2023-02-23T11:20:51.192Z,4.93
2023-02-23T11:23:24.554Z,4.93
2023-02-23T11:25:56.975Z,5.06
2023-02-23T11:28:31.507Z,5.14
2023-02-23T11:31:02.899Z,5.25
2023-02-23T11:33:36.053Z,5.31
2023-02-23T11:36:18.970Z,5.37
2023-02-23T11:39:16.335Z,5.44
2023-02-23T11:41:44.009Z,5.24
2023-02-23T11:44:24.225Z,5.44
2023-02-23T11:46:52.195Z,5.53
2023-02-23T11:49:29.562Z,5.56
2023-02-23T11:51:56.561Z,5.65
2023-02-23T11:54:35.861Z,5.73
2023-02-23T11:57:02.973Z,5.82
2023-02-23T11:59:35.398Z,5.70
2023-02-23T12:02:19.243Z,5.97
2023-02-23T12:04:49.749Z,5.94
2023-02-23T12:07:25.252Z,6.01
2023-02-23T12:10:12.096Z,6.06
2023-02-23T12:12:47.037Z,6.06
2023-02-23T12:15:31.910Z,6.00
2023-02-23T12:18:05.195Z,5.88
2023-02-23T12:20:38.989Z,5.85
2023-02-23T12:23:13.044Z,5.71
2023-02-23T12:25:45.333Z,5.78
2023-02-23T12:28:28.002Z,5.76
2023-02-23T12:31:28.872Z,5.74
2023-02-23T12:34:01.350Z,5.62
2023-02-23T12:36:43.876Z,5.61
2023-02-23T12:39:24.618Z,5.55
2023-02-23T12:42:05.637Z,5.57
2023-02-23T12:44:42.827Z,5.49
2023-02-23T12:47:22.706Z,5.60
2023-02-23T12:50:04.730Z,5.53
2023-02-23T12:52:36.867Z,5.52
2023-02-23T12:55:09.535Z,5.48
2023-02-23T12:57:59.225Z,5.53
2023-02-23T13:00:35.169Z,5.57
2023-02-23T13:03:23.265Z,5.59
2023-02-23T13:06:08.471Z,5.63
2023-02-23T13:09:17.181Z,5.74
2023-02-23T13:12:00.392Z,5.72
2023-02-23T13:14:45.018Z,5.75
2023-02-23T13:17:39.896Z,5.75
2023-02-23T13:20:27.712Z,5.77
2023-02-23T13:23:22.936Z,5.85
2023-02-23T13:25:49.448Z,5.91
2023-02-23T13:28:28.513Z,5.96
2023-02-23T13:30:55.311Z,6.01
2023-02-23T13:33:43.298Z,6.15
2023-02-23T13:36:13.044Z,6.14
2023-02-23T13:38:45.742Z,6.26
2023-02-23T13:41:30.201Z,6.29
2023-02-23T13:44:20.160Z,6.28
2023-02-23T13:47:00.613Z,6.29
2023-02-23T13:50:03.291Z,6.38
2023-02-23T13:52:40.349Z,6.31
2023-02-23T13:55:40.036Z,6.34
2023-02-23T13:58:16.788Z,6.41
2023-02-23T14:00:44.340Z,6.21
2023-02-23T14:03:23.831Z,6.31
2023-02-23T14:05:56.772Z,6.24
2023-02-23T14:08:31.283Z,6.19
2023-02-23T14:10:58.227Z,6.10
2023-02-23T14:13:29.008Z,6.06
2023-02-23T14:16:17.517Z,6.20
2023-02-23T14:19:10.937Z,6.20
2023-02-23T14:21:50.973Z,6.23
2023-02-23T14:24:17.822Z,6.28
2023-02-23T14:27:09.742Z,6.28
2023-02-23T14:29:44.020Z,6.28
2023-02-23T14:32:10.774Z,6.29
2023-02-23T14:34:49.130Z,6.27
2023-02-23T14:37:32.020Z,6.14
2023-02-23T14:40:17.125Z,6.05
2023-02-23T14:42:50.292Z,5.86
2023-02-23T14:45:27.581Z,5.85
2023-02-23T14:48:07.584Z,5.83
2023-02-23T14:50:36.459Z,5.75
2023-02-23T14:53:04.881Z,5.68
2023-02-23T14:55:36.977Z,5.67
2023-02-23T14:58:21.202Z,5.62
2023-02-23T15:00:49.109Z,5.53
2023-02-23T15:03:15.720Z,5.43
2023-02-23T15:05:46.356Z,5.47
2023-02-23T15:08:17.292Z,5.43
2023-02-23T15:10:46.392Z,5.37
2023-02-23T15:16:14.702Z,5.31
2023-02-23T15:18:43.767Z,5.20
2023-02-23T15:21:17.607Z,5.21
2023-02-23T15:23:48.792Z,5.16
2023-02-23T15:26:25.488Z,5.13
2023-02-23T15:28:53.000Z,5.08
2023-02-23T15:31:20.012Z,5.03
2023-02-23T15:33:50.912Z,4.99
2023-02-23T15:36:29.747Z,5.01
2023-02-23T15:38:58.756Z,4.97
2023-02-23T15:41:36.988Z,4.92
2023-02-23T15:44:12.494Z,4.68
2023-02-23T15:46:41.633Z,4.84
2023-02-23T15:49:13.524Z,4.74
2023-02-23T15:51:49.381Z,4.73
2023-02-23T15:54:27.348Z,4.62
2023-02-23T15:57:02.857Z,4.57
2023-02-23T15:59:40.058Z,4.53
2023-02-23T16:02:16.780Z,4.51
2023-02-23T16:04:53.977Z,4.47
2023-02-23T16:07:26.622Z,4.47
2023-02-23T16:10:05.284Z,4.43
2023-02-23T16:12:36.157Z,4.40
2023-02-23T16:15:06.645Z,4.30
2023-02-23T16:17:48.362Z,4.31
2023-02-23T16:20:21.400Z,4.31
2023-02-23T16:22:53.618Z,4.31
2023-02-23T16:25:21.427Z,4.22
2023-02-23T16:27:59.571Z,4.25
2023-02-23T16:30:32.344Z,4.26
2023-02-23T16:33:05.817Z,4.23
2023-02-23T16:35:45.572Z,4.15
2023-02-23T16:38:38.299Z,4.23
2023-02-23T16:41:25.844Z,4.23
2023-02-23T16:43:54.677Z,4.26
2023-02-23T16:46:25.228Z,4.25
2023-02-23T16:48:52.790Z,4.22
2023-02-23T16:51:23.625Z,4.20
2023-02-23T16:53:51.942Z,4.16
2023-02-23T16:56:21.621Z,4.17
2023-02-23T16:58:53.696Z,4.08
2023-02-23T17:01:21.284Z,4.13
2023-02-23T17:03:53.215Z,4.01
2023-02-23T17:06:22.014Z,4.15
2023-02-23T17:08:57.514Z,4.13
2023-02-23T17:11:24.976Z,4.15
2023-02-23T17:13:51.592Z,4.13
2023-02-23T17:16:18.591Z,4.13
2023-02-23T17:18:45.425Z,4.13
2023-02-23T17:21:14.223Z,4.09
2023-02-23T17:23:51.378Z,4.13
2023-02-23T17:26:22.897Z,4.09
2023-02-23T17:28:50.119Z,4.10
2023-02-23T17:31:20.020Z,4.13
2023-02-23T17:33:47.676Z,4.11
2023-02-23T17:36:16.977Z,4.13
2023-02-23T17:38:45.007Z,4.15
2023-02-23T17:41:19.065Z,4.18
2023-02-23T17:43:46.081Z,4.22
2023-02-23T17:46:13.701Z,4.23
2023-02-23T17:48:47.059Z,4.24
2023-02-23T17:51:16.992Z,4.03
2023-02-23T17:53:44.074Z,4.09
2023-02-23T17:56:11.177Z,4.27
2023-02-23T17:58:38.474Z,4.28
2023-02-23T18:01:07.247Z,4.13
2023-02-23T18:03:37.688Z,4.33
2023-02-23T18:06:09.975Z,4.31
2023-02-23T18:08:37.498Z,4.35
2023-02-23T18:11:10.301Z,4.37
2023-02-23T18:13:37.310Z,4.30
2023-02-23T18:16:12.049Z,4.39
2023-02-23T18:18:42.231Z,4.38
2023-02-23T18:21:14.526Z,4.45
2023-02-23T18:23:41.599Z,4.41
2023-02-23T18:26:20.511Z,4.45
2023-02-23T18:28:47.441Z,4.47
2023-02-23T18:31:26.800Z,4.55
2023-02-23T18:33:53.991Z,4.56
2023-02-23T18:36:23.830Z,4.56
2023-02-23T18:38:50.858Z,4.57
2023-02-23T18:41:18.635Z,4.60
2023-02-23T18:43:45.487Z,4.59
2023-02-23T18:46:13.786Z,4.55
2023-02-23T18:48:42.093Z,4.59
2023-02-23T18:51:14.350Z,4.60
2023-02-23T18:53:41.920Z,4.60
2023-02-23T18:56:12.797Z,4.55
2023-02-23T18:58:39.652Z,4.59
2023-02-23T19:01:26.991Z,4.61
2023-02-23T19:03:55.286Z,4.52
2023-02-23T19:06:23.855Z,4.49
2023-02-23T19:08:56.754Z,4.39
2023-02-23T19:11:26.485Z,4.55
2023-02-23T19:13:55.120Z,4.53
2023-02-23T19:16:22.688Z,4.59
2023-02-23T19:18:49.898Z,4.51
2023-02-23T19:21:22.841Z,4.58
2023-02-23T19:23:51.176Z,4.48
2023-02-23T19:26:18.750Z,4.48
2023-02-23T19:28:46.284Z,4.51
2023-02-23T19:31:17.150Z,4.41
2023-02-23T19:33:44.403Z,4.50
2023-02-23T19:36:13.845Z,4.50
2023-02-23T19:38:42.681Z,4.41
2023-02-23T19:41:14.284Z,4.49
2023-02-23T19:43:41.032Z,4.50
2023-02-23T19:46:10.308Z,4.45
2023-02-23T19:48:37.596Z,4.48
2023-02-23T19:51:05.683Z,4.43
2023-02-23T19:53:32.937Z,4.42
2023-02-23T19:56:07.663Z,4.47
2023-02-23T19:58:35.271Z,4.34
2023-02-23T20:01:09.116Z,4.53
2023-02-23T20:03:43.413Z,4.57
2023-02-23T20:06:14.874Z,4.72
2023-02-23T20:08:43.647Z,4.79
2023-02-23T20:11:11.136Z,4.89
2023-02-23T20:13:40.754Z,4.98
2023-02-23T20:16:15.009Z,5.07
2023-02-23T20:18:43.285Z,5.14
2023-02-23T20:21:23.405Z,5.27
2023-02-23T20:23:54.019Z,5.42
2023-02-23T20:26:29.421Z,5.52
2023-02-23T20:28:57.344Z,5.57
2023-02-23T20:31:27.323Z,5.65
2023-02-23T20:33:54.604Z,5.74
2023-02-23T20:36:22.260Z,5.77
2023-02-23T20:38:48.995Z,5.52
2023-02-23T20:41:16.781Z,5.83
2023-02-23T20:43:44.156Z,5.90
2023-02-23T20:46:16.207Z,5.90
2023-02-23T20:48:43.970Z,5.91
2023-02-23T20:51:14.342Z,5.94
2023-02-23T20:53:42.010Z,5.97
2023-02-23T20:56:09.749Z,5.98
2023-02-23T20:58:36.827Z,5.98
2023-02-23T21:01:06.556Z,5.97
2023-02-23T21:03:34.732Z,5.88
2023-02-23T21:06:01.598Z,5.86
2023-02-23T21:08:28.970Z,6.04
2023-02-23T21:10:55.855Z,6.07
2023-02-23T21:13:23.337Z,6.11
2023-02-23T21:16:01.121Z,6.11
2023-02-23T21:18:28.951Z,6.10
2023-02-23T21:20:58.997Z,6.14
2023-02-23T21:23:25.632Z,6.13
2023-02-23T21:25:54.286Z,6.09
2023-02-23T21:28:21.280Z,6.15
2023-02-23T21:30:48.316Z,6.16
2023-02-23T21:33:15.023Z,6.18
2023-02-23T21:35:41.623Z,6.19
2023-02-23T21:38:08.453Z,6.16
2023-02-23T21:40:35.866Z,6.00
2023-02-23T21:43:06.653Z,6.16
2023-02-23T21:45:33.498Z,6.19
2023-02-23T21:48:00.175Z,6.17
2023-02-23T21:50:26.833Z,6.20
2023-02-23T21:52:56.192Z,5.91
2023-02-23T21:55:23.104Z,6.21
2023-02-23T21:57:52.126Z,6.13
2023-02-23T22:00:19.155Z,6.18
2023-02-23T22:02:46.838Z,6.16
2023-02-23T22:05:15.815Z,6.14
2023-02-23T22:07:48.827Z,6.07
2023-02-23T22:10:17.636Z,6.11
2023-02-23T22:12:44.212Z,6.08
2023-02-23T22:15:11.229Z,6.05
2023-02-23T22:17:38.848Z,6.06
2023-02-23T22:20:07.395Z,6.00
2023-02-23T22:22:36.274Z,5.95
2023-02-23T22:25:04.648Z,5.94
2023-02-23T22:27:31.576Z,5.91
2023-02-23T22:29:59.772Z,5.97
2023-02-23T22:32:27.362Z,5.92
2023-02-23T22:34:54.226Z,5.87
2023-02-23T22:37:31.690Z,5.70
2023-02-23T22:40:00.264Z,5.82
2023-02-23T22:42:30.120Z,5.73
2023-02-23T22:44:57.198Z,5.71
2023-02-23T22:47:24.409Z,5.70
2023-02-23T22:49:51.030Z,5.66
2023-02-23T22:52:17.921Z,5.59
2023-02-23T22:54:48.067Z,5.39
2023-02-23T22:57:15.058Z,5.52
2023-02-23T22:59:54.586Z,5.48
2023-02-23T23:02:23.676Z,5.46
2023-02-23T23:04:50.521Z,5.44
2023-02-23T23:07:20.058Z,5.40
2023-02-23T23:09:47.118Z,5.33
2023-02-23T23:12:13.634Z,5.31
2023-02-23T23:14:40.223Z,5.26
2023-02-23T23:17:06.874Z,5.25
2023-02-23T23:19:39.171Z,5.24
2023-02-23T23:22:06.017Z,5.24
2023-02-23T23:24:32.744Z,5.23
2023-02-23T23:27:01.019Z,5.16
2023-02-23T23:29:30.339Z,5.03
2023-02-23T23:31:57.663Z,5.18
2023-02-23T23:34:25.294Z,5.20
2023-02-23T23:36:53.413Z,5.16
2023-02-23T23:39:23.028Z,5.17
2023-02-23T23:41:50.172Z,5.16
2023-02-23T23:44:20.116Z,5.13
2023-02-23T23:46:47.565Z,5.10
2023-02-23T23:49:17.332Z,5.05
2023-02-23T23:51:50.895Z,5.08
2023-02-23T23:54:21.710Z,5.08
2023-02-23T23:56:49.712Z,5.06
2023-02-23T23:59:18.738Z,5.04
